Terminal Aerodrome Forecast
Issued by NWS

Home | Current Version | Previous Version | Text Only | Print | Product List | Glossary On
Versions: 1 2 3 4 5 6 7 8 9 10 11 12 13 14 15 16 17
000
FTUS43 KABR 231100
TAFPIR
TAF
KPIR 231132Z 2312/2412 13021KT P6SM BKN110
     FM231400 15010KT P6SM OVC050
     FM240000 13008KT P6SM OVC250=

USA.gov is the U.S. government's official web portal to all federal, state and local government web resources and services.